Palestine, TX

3:09 AM CST on November 23, 2014 (GMT -0600)
Crockett | Change Station
CLOSE
Current Station
Airport
Location: Crockett,
Elevation: 348 ft
Nearby Weather Stations

Elev 348 ft 31.31 °N, 95.40 °W | Updated 14 minutes ago

Rain
Rain
64 °F
Feels Like 64 °F
N
6
Wind Variable Wind from East
Gusts 17 mph

Today
High -- | Low -- °F
--% Chance of Precip.
Yesterday
High -- | Low -- °F
Precip. -- in
6:57 AM 5:19 PM
New Moon, 1% visible
Pressure 29.59 in
Visibility 10.0 miles
Clouds Clear
Dew Point 64 °F
Humidity 100%
Rainfall 1.49 in
Snow Depth Not available.
UV 0 out of 12
Pollen .60 out of 12
Air Quality Not available.
Flu Activity Not available.
METAR KDKR 230855Z AUTO 09005G15KT 10SM CLR 18/18 A2959 RMK AO2 P0024

More Conditions Fewer Conditions

Pressure 29.59 in
Visibility 10.0 miles
Clouds Clear
Dew Point 64 °F
Humidity 100%
Rainfall 1.49 in
Snow Depth Not available.
UV 0 out of 12
Pollen .60 out of 12
Air Quality Not available.
Flu Activity Not available.
METAR KDKR 230855Z AUTO 09005G15KT 10SM CLR 18/18 A2959 RMK AO2 P0024

More Conditions Fewer Conditions

10-Day Weather Forecast

Almanac

Astronomy

Nov. 23, 2014 Rise Set
Actual Time
Civil Twilight
Nautical Twilight
Astronomical Twilight
Moon
Length of Visible Light
Length of Day
Tomorrow will be .
, % of the Moon is Illuminated

Today's Extremes

State Highs State Lows

Community

WunderPhotos

Upload Photos

1,773,024 photos uploaded!

WunderBlogs® & News

Nearby

Air Quality

  Air Quality AQ Index Pollutant
Not available.

Snow Depth

Station Depth Elevation

Earthquake Activity

City Distance Mag. Time & Date
Minimum magnitude displayed is 2.5.

Coastal Water Temperatures

Place Temperature

Nearby Weather Stations